Happy Avocet — OXMY2 — position and weather

sailwx.info

Track history (hours):
 
Tides and Currents Weather Stations Pressure Air Temp Water Temp Dewpoint Dewpoint Depression Visibility Wind Speed Wind Dir Waves Ship Positions

Happy Avocet

Last reported at 2017-Nov-08 03:17 UTC. Time now 2017-Nov-22 11:21 UTC.
Position N 26°13' W 079°23'.
Warning: this ship's position is 14 days out of date.

Length 146 m; draft 7.5 m.

Type: Tanker. MMSI: 219830000.

Date/timePositionNaut miles runAvg speedWind from/ knotsBaromVisibWave heightAir tempDewpointWater temp
2017-Nov-08 03:17N 26°13' W 079°23'514.2
2017-Nov-08 02:57N 26°08' W 079°23'1014.3
2017-Nov-08 02:14N 25°58' W 079°25'414.3
2017-Nov-08 01:58N 25°55' W 079°26'714.3
2017-Nov-08 01:28N 25°48' W 079°28'714.4
2017-Nov-08 01:00N 25°41' W 079°29'714.6
2017-Nov-08 00:30N 25°34' W 079°31'  
2017-Nov-04 20:16N 29°21' W 094°46'1013.4
2017-Nov-04 19:30N 29°30' W 094°52'713.8
2017-Nov-04 19:01N 29°35' W 094°56'612.2
2017-Nov-04 18:31N 29°41' W 094°59'5 9.4
2017-Nov-04 18:00N 29°44' W 095°03'3 6.0
2017-Nov-04 17:30N 29°44' W 095°06'3 6.6
2017-Nov-04 17:00N 29°45' W 095°10'2 3.8
2017-Nov-04 16:31N 29°45' W 095°12'  
2017-Nov-02 08:45N 29°45' W 095°12'0 0.0
2017-Nov-02 08:15N 29°45' W 095°12'0 0.0
2017-Nov-02 02:27N 29°45' W 095°12'  
2017-Oct-29 14:21N 29°45' W 095°12'0 0.0
2017-Oct-29 13:57N 29°45' W 095°12'0 0.0
2017-Oct-29 13:15N 29°45' W 095°12'0 0.0
2017-Oct-29 12:33N 29°45' W 095°12'0 0.0
2017-Oct-29 12:15N 29°45' W 095°12'0 0.0
2017-Oct-29 11:57N 29°45' W 095°12'0 0.0
2017-Oct-29 11:21N 29°45' W 095°12'0 0.0
2017-Oct-29 11:00N 29°45' W 095°12'0 0.0
2017-Oct-29 10:27N 29°45' W 095°12'0 0.0
2017-Oct-29 08:09N 29°45' W 095°12'0 0.0
2017-Oct-29 07:57N 29°45' W 095°12'0 0.0
2017-Oct-29 07:03N 29°45' W 095°12'0 0.0
2017-Oct-29 06:36N 29°45' W 095°12'0 0.0
2017-Oct-29 05:09N 29°45' W 095°12'  
Track history (hours):
 
Tides and Currents Weather Stations Pressure Air Temp Water Temp Dewpoint Dewpoint Depression Visibility Wind Speed Wind Dir Waves Ship Positions

Happy Avocet

Last reported at 2017-Nov-08 03:17 UTC. Time now 2017-Nov-22 11:21 UTC.
Position N 26°13' W 079°23'.
Warning: this ship's position is 14 days out of date.

Length 146 m; draft 7.5 m.

Type: Tanker. MMSI: 219830000.

Date/timePositionNaut miles runAvg speedWind from/ knotsBaromVisibWave heightAir tempDewpointWater temp
2017-Nov-08 03:17N 26°13' W 079°23'514.2
2017-Nov-08 02:57N 26°08' W 079°23'1014.3
2017-Nov-08 02:14N 25°58' W 079°25'414.3
2017-Nov-08 01:58N 25°55' W 079°26'714.3
2017-Nov-08 01:28N 25°48' W 079°28'714.4
2017-Nov-08 01:00N 25°41' W 079°29'714.6
2017-Nov-08 00:30N 25°34' W 079°31'  
2017-Nov-04 20:16N 29°21' W 094°46'1013.4
2017-Nov-04 19:30N 29°30' W 094°52'713.8
2017-Nov-04 19:01N 29°35' W 094°56'612.2
2017-Nov-04 18:31N 29°41' W 094°59'5 9.4
2017-Nov-04 18:00N 29°44' W 095°03'3 6.0
2017-Nov-04 17:30N 29°44' W 095°06'3 6.6
2017-Nov-04 17:00N 29°45' W 095°10'2 3.8
2017-Nov-04 16:31N 29°45' W 095°12'  
2017-Nov-02 08:45N 29°45' W 095°12'0 0.0
2017-Nov-02 08:15N 29°45' W 095°12'0 0.0
2017-Nov-02 02:27N 29°45' W 095°12'  
2017-Oct-29 14:21N 29°45' W 095°12'0 0.0
2017-Oct-29 13:57N 29°45' W 095°12'0 0.0
2017-Oct-29 13:15N 29°45' W 095°12'0 0.0
2017-Oct-29 12:33N 29°45' W 095°12'0 0.0
2017-Oct-29 12:15N 29°45' W 095°12'0 0.0
2017-Oct-29 11:57N 29°45' W 095°12'0 0.0
2017-Oct-29 11:21N 29°45' W 095°12'0 0.0
2017-Oct-29 11:00N 29°45' W 095°12'0 0.0
2017-Oct-29 10:27N 29°45' W 095°12'0 0.0
2017-Oct-29 08:09N 29°45' W 095°12'0 0.0
2017-Oct-29 07:57N 29°45' W 095°12'0 0.0
2017-Oct-29 07:03N 29°45' W 095°12'0 0.0
2017-Oct-29 06:36N 29°45' W 095°12'0 0.0
2017-Oct-29 05:09N 29°45' W 095°12'  

Dump ship's entire track history